sensor_id;sensor_type;location;lat;lon;timestamp;pressure;altitude;pressure_sealevel;temperature;humidity
7376;BME280;3728;42.266;24.944;2023-02-12T00:01:25;100577.75;;;-1.50;73.59
7376;BME280;3728;42.266;24.944;2023-02-12T00:03:54;100570.25;;;-1.45;73.33
7376;BME280;3728;42.266;24.944;2023-02-12T00:06:23;100562.78;;;-1.20;72.24
7376;BME280;3728;42.266;24.944;2023-02-12T00:08:52;100565.72;;;-1.10;70.77
7376;BME280;3728;42.266;24.944;2023-02-12T00:11:24;100560.78;;;-1.12;71.05
7376;BME280;3728;42.266;24.944;2023-02-12T00:13:55;100558.81;;;-1.10;71.25
7376;BME280;3728;42.266;24.944;2023-02-12T00:16:25;100557.63;;;-1.27;70.69
7376;BME280;3728;42.266;24.944;2023-02-12T00:18:57;100555.25;;;-1.15;70.44
7376;BME280;3728;42.266;24.944;2023-02-12T00:21:25;100558.41;;;-1.33;70.67
7376;BME280;3728;42.266;24.944;2023-02-12T00:23:53;100551.88;;;-1.42;71.50
7376;BME280;3728;42.266;24.944;2023-02-12T00:26:21;100551.84;;;-1.55;70.70
7376;BME280;3728;42.266;24.944;2023-02-12T00:28:50;100546.75;;;-1.49;71.32
7376;BME280;3728;42.266;24.944;2023-02-12T00:31:24;100543.81;;;-1.39;71.44
7376;BME280;3728;42.266;24.944;2023-02-12T00:33:55;100548.72;;;-1.24;71.73
7376;BME280;3728;42.266;24.944;2023-02-12T00:36:26;100554.06;;;-1.32;70.89
7376;BME280;3728;42.266;24.944;2023-02-12T00:38:55;100550.69;;;-1.20;71.25
7376;BME280;3728;42.266;24.944;2023-02-12T00:41:25;100549.91;;;-1.07;71.32
7376;BME280;3728;42.266;24.944;2023-02-12T00:43:53;100544.75;;;-1.01;70.40
7376;BME280;3728;42.266;24.944;2023-02-12T00:46:21;100545.94;;;-0.84;70.28
7376;BME280;3728;42.266;24.944;2023-02-12T00:48:49;100534.81;;;-0.58;69.73
7376;BME280;3728;42.266;24.944;2023-02-12T00:51:18;100539.75;;;-0.63;69.45
7376;BME280;3728;42.266;24.944;2023-02-12T00:53:46;100538.81;;;-0.82;70.97
7376;BME280;3728;42.266;24.944;2023-02-12T00:56:14;100542.81;;;-0.92;72.24
7376;BME280;3728;42.266;24.944;2023-02-12T00:58:41;100542.19;;;-0.88;72.82
7376;BME280;3728;42.266;24.944;2023-02-12T01:01:09;100530.91;;;-0.87;73.21
7376;BME280;3728;42.266;24.944;2023-02-12T01:03:37;100530.09;;;-0.74;73.44
7376;BME280;3728;42.266;24.944;2023-02-12T01:06:05;100529.69;;;-0.78;73.06
7376;BME280;3728;42.266;24.944;2023-02-12T01:08:32;100525.97;;;-0.82;73.43
7376;BME280;3728;42.266;24.944;2023-02-12T01:11:02;100516.06;;;-0.85;74.25
7376;BME280;3728;42.266;24.944;2023-02-12T01:13:32;100514.28;;;-0.78;72.54
7376;BME280;3728;42.266;24.944;2023-02-12T01:16:22;100517.03;;;-0.73;72.95
7376;BME280;3728;42.266;24.944;2023-02-12T01:18:51;100514.47;;;-0.73;73.45
7376;BME280;3728;42.266;24.944;2023-02-12T01:21:26;100512.91;;;-0.87;73.35
7376;BME280;3728;42.266;24.944;2023-02-12T01:23:57;100508.16;;;-0.77;74.00
7376;BME280;3728;42.266;24.944;2023-02-12T01:26:25;100501.22;;;-0.76;73.81
7376;BME280;3728;42.266;24.944;2023-02-12T01:28:57;100504.59;;;-0.76;73.31
7376;BME280;3728;42.266;24.944;2023-02-12T01:31:32;100502.63;;;-0.80;74.05
7376;BME280;3728;42.266;24.944;2023-02-12T01:34:03;100504.38;;;-0.74;74.19
7376;BME280;3728;42.266;24.944;2023-02-12T01:36:32;100493.72;;;-0.71;73.85
7376;BME280;3728;42.266;24.944;2023-02-12T01:39:00;100483.22;;;-0.76;74.17
7376;BME280;3728;42.266;24.944;2023-02-12T01:41:32;100503.81;;;-0.83;73.58
7376;BME280;3728;42.266;24.944;2023-02-12T01:44:18;100499.47;;;-0.89;74.40
7376;BME280;3728;42.266;24.944;2023-02-12T01:46:59;100496.88;;;-0.82;74.05
7376;BME280;3728;42.266;24.944;2023-02-12T01:49:47;100489.78;;;-0.87;73.19
7376;BME280;3728;42.266;24.944;2023-02-12T01:52:28;100482.47;;;-0.90;73.72
7376;BME280;3728;42.266;24.944;2023-02-12T01:55:00;100482.28;;;-1.01;74.47
7376;BME280;3728;42.266;24.944;2023-02-12T01:57:34;100484.28;;;-0.97;73.84
7376;BME280;3728;42.266;24.944;2023-02-12T02:00:08;100481.47;;;-0.89;73.67
7376;BME280;3728;42.266;24.944;2023-02-12T02:02:42;100472.19;;;-0.90;72.74
7376;BME280;3728;42.266;24.944;2023-02-12T02:05:20;100459.34;;;-0.96;73.00
7376;BME280;3728;42.266;24.944;2023-02-12T02:07:51;100462.91;;;-0.97;74.06
7376;BME280;3728;42.266;24.944;2023-02-12T02:10:19;100476.75;;;-1.05;74.04
7376;BME280;3728;42.266;24.944;2023-02-12T02:12:47;100468.47;;;-1.07;74.92
7376;BME280;3728;42.266;24.944;2023-02-12T02:15:34;100476.59;;;-1.23;75.14
7376;BME280;3728;42.266;24.944;2023-02-12T02:18:10;100481.53;;;-1.28;75.48
7376;BME280;3728;42.266;24.944;2023-02-12T02:24:36;100482.31;;;-1.34;74.96
7376;BME280;3728;42.266;24.944;2023-02-12T02:33:03;100491.94;;;-0.84;71.44
7376;BME280;3728;42.266;24.944;2023-02-12T02:35:50;100486.22;;;-0.86;70.20
7376;BME280;3728;42.266;24.944;2023-02-12T02:38:46;100486.84;;;-1.03;69.88
7376;BME280;3728;42.266;24.944;2023-02-12T02:44:16;100494.31;;;-0.89;68.48
7376;BME280;3728;42.266;24.944;2023-02-12T02:46:53;100479.09;;;-0.84;67.38
7376;BME280;3728;42.266;24.944;2023-02-12T02:49:45;100477.25;;;-0.70;67.49
7376;BME280;3728;42.266;24.944;2023-02-12T02:52:34;100483.00;;;-0.61;68.50
7376;BME280;3728;42.266;24.944;2023-02-12T02:55:06;100493.03;;;-0.53;69.02
7376;BME280;3728;42.266;24.944;2023-02-12T02:57:50;100488.47;;;-0.51;68.53
7376;BME280;3728;42.266;24.944;2023-02-12T03:00:37;100482.72;;;-0.40;67.74
7376;BME280;3728;42.266;24.944;2023-02-12T03:03:36;100483.47;;;-0.40;68.00
7376;BME280;3728;42.266;24.944;2023-02-12T03:06:26;100487.22;;;-0.29;67.93
7376;BME280;3728;42.266;24.944;2023-02-12T03:09:20;100477.53;;;-0.34;67.75
7376;BME280;3728;42.266;24.944;2023-02-12T03:11:55;100480.47;;;-0.30;67.27
7376;BME280;3728;42.266;24.944;2023-02-12T03:14:33;100478.47;;;-0.22;65.24
7376;BME280;3728;42.266;24.944;2023-02-12T03:17:10;100475.53;;;-0.32;66.56
7376;BME280;3728;42.266;24.944;2023-02-12T03:19:47;100478.34;;;-0.40;67.86
7376;BME280;3728;42.266;24.944;2023-02-12T03:22:23;100476.59;;;-0.46;69.09
7376;BME280;3728;42.266;24.944;2023-02-12T03:25:01;100480.91;;;-0.40;65.93
7376;BME280;3728;42.266;24.944;2023-02-12T03:27:41;100473.03;;;-0.45;64.67
7376;BME280;3728;42.266;24.944;2023-02-12T03:30:12;100480.03;;;-0.21;64.50
7376;BME280;3728;42.266;24.944;2023-02-12T03:32:45;100477.41;;;-0.08;62.65
7376;BME280;3728;42.266;24.944;2023-02-12T03:35:40;100474.22;;;-0.03;62.26
7376;BME280;3728;42.266;24.944;2023-02-12T03:38:33;100461.34;;;-0.03;61.62
7376;BME280;3728;42.266;24.944;2023-02-12T03:41:08;100462.16;;;-0.09;62.91
7376;BME280;3728;42.266;24.944;2023-02-12T03:43:52;100471.28;;;-0.13;63.09
7376;BME280;3728;42.266;24.944;2023-02-12T03:49:15;100490.69;;;-0.11;63.97
7376;BME280;3728;42.266;24.944;2023-02-12T03:51:46;100482.19;;;0.20;62.69
7376;BME280;3728;42.266;24.944;2023-02-12T03:54:17;100487.09;;;-0.03;65.21
7376;BME280;3728;42.266;24.944;2023-02-12T03:57:17;100477.41;;;-0.14;68.13
7376;BME280;3728;42.266;24.944;2023-02-12T03:59:47;100477.50;;;-0.27;68.23
7376;BME280;3728;42.266;24.944;2023-02-12T04:02:17;100476.53;;;-0.33;68.82
7376;BME280;3728;42.266;24.944;2023-02-12T04:04:45;100481.88;;;-0.34;68.04
7376;BME280;3728;42.266;24.944;2023-02-12T04:07:14;100481.34;;;-0.49;69.36
7376;BME280;3728;42.266;24.944;2023-02-12T04:09:43;100481.19;;;-0.54;69.34
7376;BME280;3728;42.266;24.944;2023-02-12T04:23:49;100487.56;;;-0.70;73.69
7376;BME280;3728;42.266;24.944;2023-02-12T04:26:44;100470.69;;;-0.53;73.05
7376;BME280;3728;42.266;24.944;2023-02-12T04:35:31;100490.44;;;-0.03;68.59
7376;BME280;3728;42.266;24.944;2023-02-12T04:38:27;100491.03;;;-0.01;67.73
7376;BME280;3728;42.266;24.944;2023-02-12T04:41:14;100498.09;;;0.11;67.30
7376;BME280;3728;42.266;24.944;2023-02-12T04:43:57;100503.34;;;-0.09;65.80
7376;BME280;3728;42.266;24.944;2023-02-12T04:46:38;100506.09;;;-0.04;65.43
7376;BME280;3728;42.266;24.944;2023-02-12T04:49:21;100506.78;;;0.10;64.24
7376;BME280;3728;42.266;24.944;2023-02-12T04:52:03;100506.34;;;0.19;63.76
7376;BME280;3728;42.266;24.944;2023-02-12T04:54:31;100511.75;;;0.11;63.92
7376;BME280;3728;42.266;24.944;2023-02-12T04:56:58;100513.75;;;0.09;63.37
7376;BME280;3728;42.266;24.944;2023-02-12T04:59:26;100508.03;;;0.07;65.00
7376;BME280;3728;42.266;24.944;2023-02-12T05:01:53;100497.97;;;-0.01;64.53
7376;BME280;3728;42.266;24.944;2023-02-12T05:04:21;100501.81;;;-0.17;65.90
7376;BME280;3728;42.266;24.944;2023-02-12T05:06:48;100499.47;;;-0.25;67.22
7376;BME280;3728;42.266;24.944;2023-02-12T05:09:18;100503.56;;;-0.11;66.08
7376;BME280;3728;42.266;24.944;2023-02-12T05:11:46;100510.72;;;0.19;65.93
7376;BME280;3728;42.266;24.944;2023-02-12T05:14:14;100506.47;;;-0.01;66.47
7376;BME280;3728;42.266;24.944;2023-02-12T05:16:42;100514.19;;;-0.01;67.19
7376;BME280;3728;42.266;24.944;2023-02-12T05:19:09;100512.66;;;-0.08;67.75
7376;BME280;3728;42.266;24.944;2023-02-12T05:21:37;100513.94;;;0.08;68.33
7376;BME280;3728;42.266;24.944;2023-02-12T05:24:06;100513.53;;;0.11;67.68
7376;BME280;3728;42.266;24.944;2023-02-12T05:26:34;100518.47;;;0.12;66.71
7376;BME280;3728;42.266;24.944;2023-02-12T05:29:02;100518.66;;;0.17;66.77
7376;BME280;3728;42.266;24.944;2023-02-12T05:31:30;100518.06;;;0.15;68.03
7376;BME280;3728;42.266;24.944;2023-02-12T05:33:57;100527.69;;;0.26;67.26
7376;BME280;3728;42.266;24.944;2023-02-12T05:36:25;100531.16;;;0.45;65.82
7376;BME280;3728;42.266;24.944;2023-02-12T05:38:57;100537.59;;;0.60;64.43
7376;BME280;3728;42.266;24.944;2023-02-12T05:41:26;100546.22;;;0.73;63.79
7376;BME280;3728;42.266;24.944;2023-02-12T05:43:53;100541.06;;;0.73;66.00
7376;BME280;3728;42.266;24.944;2023-02-12T05:46:21;100551.34;;;0.79;65.98
7376;BME280;3728;42.266;24.944;2023-02-12T05:48:49;100549.09;;;0.83;67.27
7376;BME280;3728;42.266;24.944;2023-02-12T05:51:19;100553.44;;;0.89;66.06
7376;BME280;3728;42.266;24.944;2023-02-12T05:53:51;100553.38;;;0.95;64.11
7376;BME280;3728;42.266;24.944;2023-02-12T05:56:24;100557.31;;;0.98;63.25
7376;BME280;3728;42.266;24.944;2023-02-12T05:58:57;100560.72;;;1.16;62.61
7376;BME280;3728;42.266;24.944;2023-02-12T06:01:35;100565.09;;;1.16;62.23
7376;BME280;3728;42.266;24.944;2023-02-12T06:04:07;100576.28;;;1.10;62.08
7376;BME280;3728;42.266;24.944;2023-02-12T06:06:39;100581.06;;;1.06;62.82
7376;BME280;3728;42.266;24.944;2023-02-12T06:09:09;100578.84;;;1.10;63.40
7376;BME280;3728;42.266;24.944;2023-02-12T06:11:38;100580.56;;;1.16;63.71
7376;BME280;3728;42.266;24.944;2023-02-12T06:14:07;100587.91;;;1.19;64.84
7376;BME280;3728;42.266;24.944;2023-02-12T06:16:36;100593.06;;;1.37;66.37
7376;BME280;3728;42.266;24.944;2023-02-12T06:19:04;100602.75;;;1.42;66.04
7376;BME280;3728;42.266;24.944;2023-02-12T06:21:33;100591.53;;;1.36;66.32
7376;BME280;3728;42.266;24.944;2023-02-12T06:24:01;100590.16;;;1.52;63.10
7376;BME280;3728;42.266;24.944;2023-02-12T06:26:28;100585.22;;;1.50;62.10
7376;BME280;3728;42.266;24.944;2023-02-12T06:28:56;100579.25;;;1.50;62.33
7376;BME280;3728;42.266;24.944;2023-02-12T06:31:32;100584.78;;;1.53;61.80
7376;BME280;3728;42.266;24.944;2023-02-12T06:34:03;100583.22;;;1.52;61.89
7376;BME280;3728;42.266;24.944;2023-02-12T06:36:32;100593.25;;;1.60;61.79
7376;BME280;3728;42.266;24.944;2023-02-12T06:39:05;100595.28;;;1.76;61.18
7376;BME280;3728;42.266;24.944;2023-02-12T06:41:33;100596.91;;;1.89;60.16
7376;BME280;3728;42.266;24.944;2023-02-12T06:44:01;100597.03;;;1.94;60.42
7376;BME280;3728;42.266;24.944;2023-02-12T06:46:29;100593.81;;;1.98;60.49
7376;BME280;3728;42.266;24.944;2023-02-12T06:48:59;100595.91;;;1.90;59.57
7376;BME280;3728;42.266;24.944;2023-02-12T06:51:27;100598.03;;;2.11;59.39
7376;BME280;3728;42.266;24.944;2023-02-12T06:53:57;100594.38;;;2.19;59.41
7376;BME280;3728;42.266;24.944;2023-02-12T06:56:25;100594.72;;;2.22;58.74
7376;BME280;3728;42.266;24.944;2023-02-12T06:58:56;100594.06;;;2.27;59.03
7376;BME280;3728;42.266;24.944;2023-02-12T07:01:28;100591.19;;;2.35;58.54
7376;BME280;3728;42.266;24.944;2023-02-12T07:03:58;100589.06;;;2.43;58.28
7376;BME280;3728;42.266;24.944;2023-02-12T07:06:29;100594.13;;;2.80;57.22
7376;BME280;3728;42.266;24.944;2023-02-12T07:09:00;100591.81;;;2.60;57.11
7376;BME280;3728;42.266;24.944;2023-02-12T07:11:34;100589.91;;;2.67;57.29
7376;BME280;3728;42.266;24.944;2023-02-12T07:14:05;100588.69;;;2.69;57.94
7376;BME280;3728;42.266;24.944;2023-02-12T07:16:32;100596.69;;;2.80;58.67
7376;BME280;3728;42.266;24.944;2023-02-12T07:19:03;100605.56;;;2.72;58.97
7376;BME280;3728;42.266;24.944;2023-02-12T07:21:30;100608.53;;;2.87;58.90
7376;BME280;3728;42.266;24.944;2023-02-12T07:24:01;100592.66;;;2.95;59.18
7376;BME280;3728;42.266;24.944;2023-02-12T07:26:29;100604.63;;;3.19;57.99
7376;BME280;3728;42.266;24.944;2023-02-12T07:28:56;100593.81;;;3.22;57.81
7376;BME280;3728;42.266;24.944;2023-02-12T07:31:24;100595.63;;;3.33;58.46
7376;BME280;3728;42.266;24.944;2023-02-12T07:33:54;100599.09;;;3.51;58.42
7376;BME280;3728;42.266;24.944;2023-02-12T07:36:24;100596.28;;;3.40;58.52
7376;BME280;3728;42.266;24.944;2023-02-12T07:38:54;100590.00;;;3.48;58.43
7376;BME280;3728;42.266;24.944;2023-02-12T07:41:25;100601.13;;;3.60;58.33
7376;BME280;3728;42.266;24.944;2023-02-12T07:43:59;100601.44;;;3.64;58.10
7376;BME280;3728;42.266;24.944;2023-02-12T07:46:37;100607.28;;;3.82;58.89
7376;BME280;3728;42.266;24.944;2023-02-12T07:49:19;100601.94;;;3.89;58.92
7376;BME280;3728;42.266;24.944;2023-02-12T07:51:51;100601.47;;;4.03;58.11
7376;BME280;3728;42.266;24.944;2023-02-12T07:54:21;100606.09;;;4.01;57.40
7376;BME280;3728;42.266;24.944;2023-02-12T07:56:48;100603.38;;;4.08;57.75
7376;BME280;3728;42.266;24.944;2023-02-12T07:59:18;100604.16;;;4.08;57.85
7376;BME280;3728;42.266;24.944;2023-02-12T08:01:50;100608.94;;;4.28;57.68
7376;BME280;3728;42.266;24.944;2023-02-12T08:04:21;100610.16;;;4.37;56.22
7376;BME280;3728;42.266;24.944;2023-02-12T08:06:52;100613.38;;;4.44;57.47
7376;BME280;3728;42.266;24.944;2023-02-12T08:09:23;100611.69;;;4.50;57.24
7376;BME280;3728;42.266;24.944;2023-02-12T08:11:55;100619.31;;;4.56;56.49
7376;BME280;3728;42.266;24.944;2023-02-12T08:14:23;100619.06;;;4.58;56.24
7376;BME280;3728;42.266;24.944;2023-02-12T08:16:51;100620.97;;;4.62;56.17
7376;BME280;3728;42.266;24.944;2023-02-12T08:19:19;100629.63;;;4.68;55.92
7376;BME280;3728;42.266;24.944;2023-02-12T08:21:53;100631.06;;;4.75;55.91
7376;BME280;3728;42.266;24.944;2023-02-12T08:24:23;100634.53;;;4.98;55.81
7376;BME280;3728;42.266;24.944;2023-02-12T08:26:51;100638.72;;;4.99;55.88
7376;BME280;3728;42.266;24.944;2023-02-12T08:29:24;100648.22;;;5.10;55.82
7376;BME280;3728;42.266;24.944;2023-02-12T08:31:56;100647.59;;;5.36;55.73
7376;BME280;3728;42.266;24.944;2023-02-12T08:34:44;100645.44;;;5.49;54.97
7376;BME280;3728;42.266;24.944;2023-02-12T08:37:12;100648.00;;;5.83;53.07
7376;BME280;3728;42.266;24.944;2023-02-12T08:39:40;100649.66;;;6.10;52.17
7376;BME280;3728;42.266;24.944;2023-02-12T08:42:08;100649.50;;;6.44;50.41
7376;BME280;3728;42.266;24.944;2023-02-12T08:44:35;100654.25;;;6.73;49.94
7376;BME280;3728;42.266;24.944;2023-02-12T08:47:03;100666.00;;;6.81;49.43
7376;BME280;3728;42.266;24.944;2023-02-12T08:49:32;100662.69;;;7.17;48.04
7376;BME280;3728;42.266;24.944;2023-02-12T08:52:00;100665.38;;;7.27;46.63
7376;BME280;3728;42.266;24.944;2023-02-12T08:54:29;100671.28;;;7.54;45.93
7376;BME280;3728;42.266;24.944;2023-02-12T08:57:01;100681.59;;;7.34;46.72
7376;BME280;3728;42.266;24.944;2023-02-12T08:59:29;100673.78;;;7.34;46.78
7376;BME280;3728;42.266;24.944;2023-02-12T09:01:57;100671.00;;;7.14;46.89
7376;BME280;3728;42.266;24.944;2023-02-12T09:04:27;100685.41;;;7.64;46.07
7376;BME280;3728;42.266;24.944;2023-02-12T09:06:55;100688.19;;;7.89;44.81
7376;BME280;3728;42.266;24.944;2023-02-12T09:09:23;100686.94;;;7.54;45.89
7376;BME280;3728;42.266;24.944;2023-02-12T09:11:51;100689.72;;;7.43;46.86
7376;BME280;3728;42.266;24.944;2023-02-12T09:14:19;100695.38;;;7.30;47.18
7376;BME280;3728;42.266;24.944;2023-02-12T09:16:51;100693.03;;;7.02;47.34
7376;BME280;3728;42.266;24.944;2023-02-12T09:19:20;100699.53;;;6.99;46.95
7376;BME280;3728;42.266;24.944;2023-02-12T09:21:51;100693.94;;;7.17;47.43
7376;BME280;3728;42.266;24.944;2023-02-12T09:24:23;100700.59;;;7.35;48.45
7376;BME280;3728;42.266;24.944;2023-02-12T09:26:51;100707.50;;;7.51;47.64
7376;BME280;3728;42.266;24.944;2023-02-12T09:29:18;100702.91;;;7.68;47.43
7376;BME280;3728;42.266;24.944;2023-02-12T09:31:46;100698.34;;;7.85;47.04
7376;BME280;3728;42.266;24.944;2023-02-12T09:34:13;100711.72;;;8.04;47.39
7376;BME280;3728;42.266;24.944;2023-02-12T09:36:41;100707.91;;;8.21;46.71
7376;BME280;3728;42.266;24.944;2023-02-12T09:39:08;100708.00;;;8.37;45.85
7376;BME280;3728;42.266;24.944;2023-02-12T09:41:53;100713.22;;;8.42;45.71
7376;BME280;3728;42.266;24.944;2023-02-12T09:47:58;100703.34;;;8.54;44.91
7376;BME280;3728;42.266;24.944;2023-02-12T09:53:22;100717.97;;;8.50;44.52
7376;BME280;3728;42.266;24.944;2023-02-12T09:55:51;100704.97;;;8.70;44.51
7376;BME280;3728;42.266;24.944;2023-02-12T09:58:32;100716.75;;;8.82;44.20
7376;BME280;3728;42.266;24.944;2023-02-12T10:01:20;100708.63;;;8.79;44.05
7376;BME280;3728;42.266;24.944;2023-02-12T10:03:51;100711.50;;;8.72;44.32
7376;BME280;3728;42.266;24.944;2023-02-12T10:06:24;100709.97;;;8.86;43.62
7376;BME280;3728;42.266;24.944;2023-02-12T10:09:04;100718.31;;;8.93;44.56
7376;BME280;3728;42.266;24.944;2023-02-12T10:18:01;100713.13;;;9.49;43.44
7376;BME280;3728;42.266;24.944;2023-02-12T10:23:54;100713.88;;;9.80;42.47
7376;BME280;3728;42.266;24.944;2023-02-12T10:26:41;100708.66;;;9.75;42.89
7376;BME280;3728;42.266;24.944;2023-02-12T10:29:33;100711.22;;;9.95;42.28
7376;BME280;3728;42.266;24.944;2023-02-12T10:32:10;100708.53;;;10.25;40.73
7376;BME280;3728;42.266;24.944;2023-02-12T10:34:44;100711.81;;;10.51;40.56
7376;BME280;3728;42.266;24.944;2023-02-12T10:37:42;100720.41;;;11.00;39.46
7376;BME280;3728;42.266;24.944;2023-02-12T10:40:24;100717.59;;;10.91;38.18
7376;BME280;3728;42.266;24.944;2023-02-12T10:42:57;100716.22;;;11.04;37.60
7376;BME280;3728;42.266;24.944;2023-02-12T10:45:34;100709.56;;;11.17;37.25
7376;BME280;3728;42.266;24.944;2023-02-12T10:48:10;100707.19;;;11.78;36.17
7376;BME280;3728;42.266;24.944;2023-02-12T10:53:39;100719.00;;;12.04;34.70
7376;BME280;3728;42.266;24.944;2023-02-12T10:59:00;100715.09;;;12.01;33.77
7376;BME280;3728;42.266;24.944;2023-02-12T11:01:37;100715.56;;;11.51;33.94
7376;BME280;3728;42.266;24.944;2023-02-12T11:04:27;100723.44;;;11.17;33.42
7376;BME280;3728;42.266;24.944;2023-02-12T11:07:03;100720.91;;;11.07;34.28
7376;BME280;3728;42.266;24.944;2023-02-12T11:09:37;100714.22;;;11.25;33.10
7376;BME280;3728;42.266;24.944;2023-02-12T11:15:14;100715.84;;;10.82;34.28
7376;BME280;3728;42.266;24.944;2023-02-12T11:17:59;100718.50;;;10.72;35.52
7376;BME280;3728;42.266;24.944;2023-02-12T11:25:57;100715.47;;;10.98;34.27
7376;BME280;3728;42.266;24.944;2023-02-12T11:28:30;100715.63;;;11.12;34.66
7376;BME280;3728;42.266;24.944;2023-02-12T11:33:41;100722.13;;;11.53;35.12
7376;BME280;3728;42.266;24.944;2023-02-12T11:38:52;100724.44;;;11.89;33.88
7376;BME280;3728;42.266;24.944;2023-02-12T11:41:35;100736.38;;;12.23;34.16
7376;BME280;3728;42.266;24.944;2023-02-12T11:44:37;100733.19;;;12.03;34.48
7376;BME280;3728;42.266;24.944;2023-02-12T11:47:09;100730.47;;;11.89;33.98
7376;BME280;3728;42.266;24.944;2023-02-12T11:52:28;100719.66;;;11.62;34.34
7376;BME280;3728;42.266;24.944;2023-02-12T11:55:00;100727.25;;;11.63;34.66
7376;BME280;3728;42.266;24.944;2023-02-12T11:57:51;100718.53;;;11.73;33.38
7376;BME280;3728;42.266;24.944;2023-02-12T12:04:02;100721.25;;;11.63;32.94
7376;BME280;3728;42.266;24.944;2023-02-12T12:06:49;100718.25;;;11.12;34.64
7376;BME280;3728;42.266;24.944;2023-02-12T12:09:45;100718.06;;;11.04;34.40
7376;BME280;3728;42.266;24.944;2023-02-12T12:12:55;100731.41;;;11.41;33.41
7376;BME280;3728;42.266;24.944;2023-02-12T12:15:37;100730.50;;;11.22;34.14
7376;BME280;3728;42.266;24.944;2023-02-12T12:18:39;100725.53;;;11.20;33.90
7376;BME280;3728;42.266;24.944;2023-02-12T12:24:08;100736.06;;;11.49;35.12
7376;BME280;3728;42.266;24.944;2023-02-12T12:26:39;100743.59;;;11.55;35.20
7376;BME280;3728;42.266;24.944;2023-02-12T12:31:55;100737.94;;;11.77;33.41
7376;BME280;3728;42.266;24.944;2023-02-12T12:34:26;100731.28;;;11.85;32.79
7376;BME280;3728;42.266;24.944;2023-02-12T12:36:58;100743.63;;;11.84;32.92
7376;BME280;3728;42.266;24.944;2023-02-12T12:43:11;100750.09;;;12.39;32.59
7376;BME280;3728;42.266;24.944;2023-02-12T12:46:10;100747.06;;;12.51;31.54
7376;BME280;3728;42.266;24.944;2023-02-12T12:58:47;100758.00;;;12.15;33.59
7376;BME280;3728;42.266;24.944;2023-02-12T13:13:47;100775.72;;;11.76;34.06
7376;BME280;3728;42.266;24.944;2023-02-12T13:16:48;100783.91;;;11.70;34.21
7376;BME280;3728;42.266;24.944;2023-02-12T13:22:36;100788.88;;;11.71;33.63
7376;BME280;3728;42.266;24.944;2023-02-12T13:28:20;100794.34;;;11.80;33.92
7376;BME280;3728;42.266;24.944;2023-02-12T13:31:08;100796.34;;;11.88;34.18
7376;BME280;3728;42.266;24.944;2023-02-12T13:34:03;100798.16;;;11.92;33.24
7376;BME280;3728;42.266;24.944;2023-02-12T13:36:35;100799.75;;;11.88;34.03
7376;BME280;3728;42.266;24.944;2023-02-12T13:41:46;100800.56;;;11.89;32.96
7376;BME280;3728;42.266;24.944;2023-02-12T13:44:27;100799.00;;;11.83;33.42
7376;BME280;3728;42.266;24.944;2023-02-12T13:53:26;100813.00;;;11.73;33.41
7376;BME280;3728;42.266;24.944;2023-02-12T13:56:33;100825.59;;;11.76;34.07
7376;BME280;3728;42.266;24.944;2023-02-12T14:05:19;100833.09;;;11.88;32.81
7376;BME280;3728;42.266;24.944;2023-02-12T14:08:01;100832.44;;;12.06;31.98
7376;BME280;3728;42.266;24.944;2023-02-12T14:10:35;100845.41;;;12.21;32.33
7376;BME280;3728;42.266;24.944;2023-02-12T14:13:34;100847.44;;;12.29;32.98
7376;BME280;3728;42.266;24.944;2023-02-12T14:22:55;100858.06;;;12.14;32.61
7376;BME280;3728;42.266;24.944;2023-02-12T14:27:44;100870.88;;;11.92;33.01
7376;BME280;3728;42.266;24.944;2023-02-12T14:30:38;100859.69;;;11.81;33.33
7376;BME280;3728;42.266;24.944;2023-02-12T14:35:35;100871.44;;;11.89;32.75
7376;BME280;3728;42.266;24.944;2023-02-12T14:40:49;100893.34;;;12.60;32.71
7376;BME280;3728;42.266;24.944;2023-02-12T14:43:38;100895.25;;;12.78;32.15
7376;BME280;3728;42.266;24.944;2023-02-12T14:54:36;100910.31;;;13.57;32.47
7376;BME280;3728;42.266;24.944;2023-02-12T14:57:37;100917.03;;;13.26;32.06
7376;BME280;3728;42.266;24.944;2023-02-12T15:14:05;100945.03;;;11.15;38.03
7376;BME280;3728;42.266;24.944;2023-02-12T15:17:04;100951.16;;;10.95;38.42
7376;BME280;3728;42.266;24.944;2023-02-12T15:20:19;100948.84;;;10.73;38.18
7376;BME280;3728;42.266;24.944;2023-02-12T15:22:52;100961.13;;;10.78;37.42
7376;BME280;3728;42.266;24.944;2023-02-12T15:25:25;100974.47;;;10.76;37.09
7376;BME280;3728;42.266;24.944;2023-02-12T15:27:57;100965.34;;;10.74;37.60
7376;BME280;3728;42.266;24.944;2023-02-12T15:30:28;100977.94;;;10.47;38.23
7376;BME280;3728;42.266;24.944;2023-02-12T15:33:26;100987.63;;;10.31;38.98
7376;BME280;3728;42.266;24.944;2023-02-12T15:36:02;100994.44;;;10.17;39.53
7376;BME280;3728;42.266;24.944;2023-02-12T15:38:39;100994.66;;;10.05;40.62
7376;BME280;3728;42.266;24.944;2023-02-12T15:44:03;101007.69;;;9.85;40.49
7376;BME280;3728;42.266;24.944;2023-02-12T15:49:37;101022.81;;;9.63;41.28
7376;BME280;3728;42.266;24.944;2023-02-12T15:52:17;101020.16;;;9.58;42.01
7376;BME280;3728;42.266;24.944;2023-02-12T15:54:47;101021.97;;;9.52;41.93
7376;BME280;3728;42.266;24.944;2023-02-12T15:57:22;101023.78;;;9.42;41.97
7376;BME280;3728;42.266;24.944;2023-02-12T16:00:03;101028.72;;;9.38;41.59
7376;BME280;3728;42.266;24.944;2023-02-12T16:02:39;101035.19;;;9.31;41.76
7376;BME280;3728;42.266;24.944;2023-02-12T16:05:09;101045.88;;;9.24;41.91
7376;BME280;3728;42.266;24.944;2023-02-12T16:07:41;101049.50;;;9.13;43.09
7376;BME280;3728;42.266;24.944;2023-02-12T16:10:13;101062.22;;;9.05;42.93
7376;BME280;3728;42.266;24.944;2023-02-12T16:12:45;101066.28;;;9.22;42.65
7376;BME280;3728;42.266;24.944;2023-02-12T16:15:23;101071.66;;;9.06;43.37
7376;BME280;3728;42.266;24.944;2023-02-12T16:17:57;101079.06;;;8.82;45.13
7376;BME280;3728;42.266;24.944;2023-02-12T16:20:30;101092.28;;;8.70;46.37
7376;BME280;3728;42.266;24.944;2023-02-12T16:22:58;101086.00;;;8.66;46.10
7376;BME280;3728;42.266;24.944;2023-02-12T16:25:30;101096.66;;;8.65;45.97
7376;BME280;3728;42.266;24.944;2023-02-12T16:28:07;101104.88;;;8.47;46.66
7376;BME280;3728;42.266;24.944;2023-02-12T16:30:51;101118.06;;;8.35;46.13
7376;BME280;3728;42.266;24.944;2023-02-12T16:38:59;101129.84;;;8.38;44.95
7376;BME280;3728;42.266;24.944;2023-02-12T16:41:54;101141.41;;;8.25;44.90